If you wish to contribute or participate in the discussions about articles you are invited to join SKYbrary as a registered user

 Actions

Brevig Mission Airport

From SKYbrary Wiki

PFKT
Airport
ICAO: PFKT – IATA: KTS
Summary
Name Brevig Mission Airport
Region North America
Territory
Location , Alaska
Serving Brevig Mission
Elevation 11.582 m
38 ft
38 ft11.582 m
Type small airport
Coordinates 65° 19' 53.00" N, 166° 27' 57.00" W
Runways
Designator Length Width Surface ROPS
4/22 643 m2,109.58 ft
23 m75.459 ft
GRVL-G /
11/29 911 m2,988.845 ft
30 m98.425 ft
GRVL-E /


METAR
Observation PFKT 110956Z AUTO 04016KT 10SM FEW031 M04/M08 A2980 RMK AO2 SLP093 T10441078 FZRANO
Station Brevig Mission Airport
Date/Time 11 April 2019 09:56:00
Wind direction 40°
Wind speed 16 kts
Lowest cloud amount few clouds
Temperature
Dew point
Humidity 77%
QNH hPa
Weather condition n/a